Time;durP1;ratioP1;P1;durP2;ratioP2;P2;SDS_P1;SDS_P2;PMS_P1;PMS_P2;Temp;Humidity;BMP_temperature;BMP_pressure;BME280_temperature;BME280_humidity;BME280_pressure;Samples;Min_cycle;Max_cycle;Signal;HPM_P1;HPM_P2
2021/06/13 00:01:14;;;;;;;11.32;7.40;;;14.80;74.80;;;;;;5041864;28;20483;-71
2021/06/13 00:03:40;;;;;;;11.95;7.55;;;14.80;74.90;;;;;;5039379;28;20068;-70
2021/06/13 00:06:05;;;;;;;11.15;7.95;;;14.80;75.00;;;;;;5038184;28;20033;-71
2021/06/13 00:08:31;;;;;;;12.80;8.60;;;14.70;75.10;;;;;;5043516;28;20116;-70
2021/06/13 00:10:58;;;;;;;11.85;7.72;;;14.70;75.30;;;;;;5038778;28;20485;-70
2021/06/13 00:13:25;;;;;;;12.43;8.07;;;14.70;75.40;;;;;;5039565;28;20373;-70
2021/06/13 00:15:51;;;;;;;14.70;8.18;;;14.70;75.40;;;;;;5035454;28;20595;-70
2021/06/13 00:18:17;;;;;;;12.02;8.20;;;14.60;75.50;;;;;;5039841;28;20172;-70
2021/06/13 00:20:43;;;;;;;11.73;7.85;;;14.60;75.60;;;;;;5037421;28;20034;-70
2021/06/13 00:23:09;;;;;;;12.13;7.57;;;14.60;75.70;;;;;;5035009;28;20128;-72
2021/06/13 00:25:36;;;;;;;14.75;8.90;;;14.60;75.80;;;;;;5045958;28;20079;-71
2021/06/13 00:28:01;;;;;;;13.35;8.02;;;14.50;76.10;;;;;;5045260;28;20065;-71
2021/06/13 00:30:27;;;;;;;11.73;8.15;;;14.40;76.30;;;;;;5046424;28;20064;-71
2021/06/13 00:32:53;;;;;;;12.02;8.82;;;14.40;76.40;;;;;;5047467;28;20052;-71
2021/06/13 00:35:20;;;;;;;13.07;8.63;;;14.50;76.50;;;;;;5044535;28;265403;-70
2021/06/13 00:37:47;;;;;;;14.60;9.18;;;14.50;76.60;;;;;;5046720;28;20480;-70
2021/06/13 00:40:13;;;;;;;12.43;9.05;;;14.50;76.40;;;;;;5041709;28;20457;-70
2021/06/13 00:42:39;;;;;;;15.60;9.93;;;14.40;76.40;;;;;;5044604;28;20029;-70
2021/06/13 00:45:07;;;;;;;14.98;9.32;;;14.40;76.50;;;;;;5044978;28;20045;-71
2021/06/13 00:47:32;;;;;;;14.13;9.02;;;14.30;76.50;;;;;;5053177;28;20022;-71
2021/06/13 00:49:58;;;;;;;18.23;8.98;;;14.40;76.70;;;;;;5045222;28;20471;-70
2021/06/13 00:52:24;;;;;;;12.55;9.05;;;14.40;76.70;;;;;;5042403;28;20186;-71
2021/06/13 00:54:50;;;;;;;14.90;9.15;;;14.40;76.60;;;;;;5047597;28;20538;-71
2021/06/13 00:57:16;;;;;;;13.43;8.63;;;14.30;76.60;;;;;;5051783;28;20020;-71
2021/06/13 00:59:41;;;;;;;15.35;9.60;;;14.30;76.70;;;;;;5048702;28;20120;-70
2021/06/13 01:02:07;;;;;;;13.70;9.02;;;14.10;76.90;;;;;;5046713;28;20049;-71
2021/06/13 01:04:34;;;;;;;13.35;8.80;;;14.10;76.90;;;;;;5044405;28;20087;-71
2021/06/13 01:07:07;;;;;;;13.75;9.40;;;14.20;77.00;;;;;;5045609;28;20033;-70
2021/06/13 01:09:38;;;;;;;13.05;9.43;;;14.20;77.00;;;;;;5046443;28;20314;-73
2021/06/13 01:12:27;;;;;;;14.00;9.38;;;14.10;76.80;;;;;;5046977;28;20064;-70
2021/06/13 01:15:11;;;;;;;14.38;9.10;;;14.10;76.90;;;;;;5047618;28;20021;-71
2021/06/13 01:17:45;;;;;;;14.60;8.70;;;14.10;77.20;;;;;;5045963;28;20036;-71
2021/06/13 01:20:31;;;;;;;11.33;8.67;;;14.00;77.20;;;;;;5045826;28;20120;-73
2021/06/13 01:23:14;;;;;;;12.35;8.38;;;14.00;77.20;;;;;;5047149;28;20049;-71
2021/06/13 01:25:58;;;;;;;12.85;8.80;;;14.00;77.40;;;;;;5043115;28;20040;-71
2021/06/13 01:28:49;;;;;;;12.93;8.60;;;14.00;77.30;;;;;;5049436;28;20149;-71
2021/06/13 01:31:20;;;;;;;12.88;9.23;;;14.00;77.40;;;;;;5043376;28;20063;-71
2021/06/13 01:33:47;;;;;;;14.48;10.18;;;14.00;77.50;;;;;;5039918;28;20468;-73
2021/06/13 01:36:15;;;;;;;15.13;10.07;;;13.90;77.50;;;;;;5040967;28;20107;-70
2021/06/13 01:38:44;;;;;;;14.88;9.30;;;13.90;77.60;;;;;;5037690;28;20033;-72
2021/06/13 01:41:11;;;;;;;14.35;10.20;;;13.90;77.50;;;;;;5043724;28;20033;-70
2021/06/13 01:43:38;;;;;;;12.57;10.13;;;13.80;77.50;;;;;;5044932;28;20065;-72
2021/06/13 01:46:06;;;;;;;13.10;9.52;;;13.80;77.80;;;;;;5042762;28;20037;-70
2021/06/13 01:48:34;;;;;;;16.73;11.10;;;13.70;77.70;;;;;;5045506;28;20051;-71
2021/06/13 01:51:01;;;;;;;17.17;10.85;;;13.70;77.90;;;;;;5041802;28;20044;-71
2021/06/13 01:53:29;;;;;;;15.32;10.23;;;13.70;78.30;;;;;;5045961;28;20124;-71
2021/06/13 01:55:56;;;;;;;14.82;10.88;;;13.70;78.20;;;;;;5043400;28;20120;-70
2021/06/13 01:58:22;;;;;;;13.93;11.07;;;13.60;78.30;;;;;;5042459;28;20045;-71
2021/06/13 02:00:50;;;;;;;14.90;11.82;;;13.60;78.30;;;;;;5047269;28;20036;-70
2021/06/13 02:03:18;;;;;;;13.65;10.95;;;13.60;78.60;;;;;;5045307;28;20025;-72
2021/06/13 02:05:47;;;;;;;17.40;12.23;;;13.60;78.60;;;;;;5042905;28;20437;-70
2021/06/13 02:08:14;;;;;;;15.20;10.93;;;13.60;78.70;;;;;;5040472;28;20037;-71
2021/06/13 02:10:40;;;;;;;16.17;10.80;;;13.50;78.70;;;;;;5045778;28;20075;-72
2021/06/13 02:13:08;;;;;;;15.90;11.27;;;13.60;78.90;;;;;;5042319;28;20127;-71
2021/06/13 02:15:36;;;;;;;15.40;10.63;;;13.50;78.90;;;;;;5044805;28;20025;-71
2021/06/13 02:18:04;;;;;;;21.05;12.07;;;13.50;79.00;;;;;;5041044;28;20033;-70
2021/06/13 02:20:31;;;;;;;16.17;11.75;;;13.50;79.10;;;;;;5046249;28;20030;-70
2021/06/13 02:22:58;;;;;;;17.25;11.40;;;13.50;79.20;;;;;;5044729;28;20528;-70
2021/06/13 02:25:24;;;;;;;18.48;11.55;;;13.50;79.10;;;;;;5042761;28;20033;-70
2021/06/13 02:27:55;;;;;;;15.95;11.80;;;13.50;79.00;;;;;;5046336;28;20029;-72
2021/06/13 02:30:24;;;;;;;16.63;11.70;;;13.40;78.90;;;;;;5044525;28;20037;-70
2021/06/13 02:32:50;;;;;;;19.08;12.82;;;13.30;79.10;;;;;;5045240;28;20052;-70
2021/06/13 02:35:18;;;;;;;14.95;11.57;;;13.20;79.50;;;;;;5045125;28;20079;-71
2021/06/13 02:37:45;;;;;;;15.35;12.07;;;13.20;79.70;;;;;;5045091;28;20052;-71
2021/06/13 02:40:12;;;;;;;17.27;12.48;;;13.20;79.80;;;;;;5044896;28;20037;-72
2021/06/13 02:42:38;;;;;;;14.02;11.93;;;13.20;79.80;;;;;;5045868;28;20045;-70
2021/06/13 02:45:12;;;;;;;17.15;11.95;;;13.20;79.70;;;;;;5042647;28;20049;-72
2021/06/13 02:47:38;;;;;;;16.17;11.90;;;13.20;79.60;;;;;;5041477;28;20037;-71
2021/06/13 02:50:06;;;;;;;15.80;12.13;;;13.10;79.50;;;;;;5046057;28;20041;-71
2021/06/13 02:52:34;;;;;;;16.08;12.88;;;13.10;79.60;;;;;;5045917;28;20040;-71
2021/06/13 02:55:01;;;;;;;19.38;12.88;;;13.10;79.70;;;;;;5043555;28;20116;-71
2021/06/13 02:57:38;;;;;;;15.80;12.25;;;13.10;79.70;;;;;;5041912;28;20080;-71
2021/06/13 03:00:08;;;;;;;15.85;12.52;;;13.10;79.70;;;;;;5044349;28;20039;-71
2021/06/13 03:02:36;;;;;;;16.20;12.35;;;13.10;80.00;;;;;;5046058;28;20041;-71
2021/06/13 03:05:04;;;;;;;14.98;11.75;;;13.00;80.10;;;;;;5041740;28;20038;-71
2021/06/13 03:07:31;;;;;;;15.52;12.75;;;13.00;80.00;;;;;;5042317;28;20457;-71
2021/06/13 03:09:57;;;;;;;18.58;13.93;;;13.00;80.10;;;;;;5042100;28;20807;-71
2021/06/13 03:12:24;;;;;;;17.02;12.80;;;13.00;80.20;;;;;;5038339;28;20138;-71
2021/06/13 03:14:52;;;;;;;17.80;12.48;;;12.90;80.40;;;;;;5041724;28;20086;-72
2021/06/13 03:17:19;;;;;;;18.15;14.40;;;12.90;80.60;;;;;;5039698;28;20057;-73
2021/06/13 03:19:47;;;;;;;18.70;13.43;;;12.90;80.80;;;;;;5043229;28;20029;-74
2021/06/13 03:22:14;;;;;;;16.05;12.68;;;12.80;80.90;;;;;;5041275;28;20481;-71
2021/06/13 03:24:42;;;;;;;15.43;12.80;;;12.80;80.90;;;;;;5044562;28;20048;-71
2021/06/13 03:27:08;;;;;;;18.17;13.32;;;12.90;80.80;;;;;;5045737;28;20551;-71
2021/06/13 03:29:35;;;;;;;18.60;13.10;;;12.80;81.00;;;;;;5045441;28;20041;-71
2021/06/13 03:32:02;;;;;;;20.40;14.05;;;12.80;81.10;;;;;;5046584;28;20045;-71
2021/06/13 03:34:28;;;;;;;17.67;13.70;;;12.80;81.30;;;;;;5046258;28;20489;-71
2021/06/13 03:36:55;;;;;;;18.27;13.85;;;12.80;81.40;;;;;;5045554;28;20056;-70
2021/06/13 03:39:22;;;;;;;17.23;14.20;;;12.80;81.30;;;;;;5044709;28;20468;-70
2021/06/13 03:41:48;;;;;;;15.18;12.70;;;12.80;81.20;;;;;;5048267;28;20107;-71
2021/06/13 03:44:15;;;;;;;21.30;13.73;;;12.80;81.30;;;;;;5046095;28;20047;-71
2021/06/13 03:46:41;;;;;;;17.90;14.02;;;12.80;81.20;;;;;;5049598;28;20033;-71
2021/06/13 03:49:10;;;;;;;15.90;13.60;;;12.80;81.20;;;;;;5042809;28;20560;-71
2021/06/13 03:51:36;;;;;;;18.70;13.35;;;12.80;81.10;;;;;;5046228;28;21193;-71
2021/06/13 03:54:01;;;;;;;18.45;14.55;;;12.80;81.00;;;;;;5045486;28;20029;-71
2021/06/13 03:56:34;;;;;;;16.50;14.05;;;12.90;81.00;;;;;;5044939;28;20377;-70
2021/06/13 03:59:00;;;;;;;16.90;13.90;;;12.90;81.00;;;;;;5045669;28;20098;-73
2021/06/13 04:01:27;;;;;;;15.93;13.32;;;12.90;81.10;;;;;;5047524;28;20152;-72
2021/06/13 04:03:53;;;;;;;15.95;12.93;;;13.00;81.10;;;;;;5046960;28;20037;-72
2021/06/13 04:06:22;;;;;;;20.33;14.15;;;13.10;81.00;;;;;;5043223;28;20041;-71
2021/06/13 04:08:49;;;;;;;17.58;14.32;;;13.10;80.60;;;;;;5047822;28;20044;-70
2021/06/13 04:11:17;;;;;;;17.88;14.45;;;13.10;80.60;;;;;;5046390;28;20488;-71
2021/06/13 04:13:43;;;;;;;20.10;14.38;;;13.10;80.50;;;;;;5047522;28;20033;-71
2021/06/13 04:16:11;;;;;;;17.33;13.82;;;13.20;80.40;;;;;;5044004;28;20045;-71
2021/06/13 04:18:38;;;;;;;18.25;13.18;;;13.20;80.20;;;;;;5045888;28;20727;-71
2021/06/13 04:21:05;;;;;;;17.73;13.02;;;13.30;80.00;;;;;;5047992;28;20037;-71
2021/06/13 04:23:32;;;;;;;17.55;13.77;;;13.30;79.60;;;;;;5044671;28;20088;-73
2021/06/13 04:25:58;;;;;;;17.15;13.30;;;13.30;79.50;;;;;;5042043;28;20037;-71
2021/06/13 04:28:24;;;;;;;18.48;13.38;;;13.30;79.50;;;;;;5040530;28;20115;-71
2021/06/13 04:31:11;;;;;;;19.83;14.00;;;13.40;79.50;;;;;;5047760;28;20036;-71
2021/06/13 04:33:39;;;;;;;16.60;13.07;;;13.50;79.30;;;;;;5041431;28;20527;-71
2021/06/13 04:36:05;;;;;;;18.65;14.07;;;13.50;79.10;;;;;;5046165;28;20056;-74
2021/06/13 04:38:31;;;;;;;17.30;13.55;;;13.60;79.00;;;;;;5042478;28;20086;-72
2021/06/13 04:40:56;;;;;;;19.17;14.63;;;13.60;79.00;;;;;;5046695;28;20420;-71
2021/06/13 04:43:22;;;;;;;16.75;13.57;;;13.60;79.10;;;;;;5046477;28;20542;-71
2021/06/13 04:45:48;;;;;;;19.52;14.65;;;13.60;79.60;;;;;;5045776;28;20052;-70
2021/06/13 04:48:13;;;;;;;19.63;15.55;;;13.60;79.50;;;;;;5047023;28;20037;-72
2021/06/13 04:50:41;;;;;;;20.45;15.43;;;13.80;79.10;;;;;;5047842;28;20040;-71
2021/06/13 04:53:47;;;;;;;20.00;14.32;;;13.90;79.30;;;;;;5047201;28;20049;-71
2021/06/13 04:56:38;;;;;;;17.10;14.05;;;14.00;79.10;;;;;;5042116;28;20095;-71
2021/06/13 04:59:03;;;;;;;18.38;14.45;;;14.10;78.70;;;;;;5043911;28;20029;-71
2021/06/13 05:01:30;;;;;;;17.55;15.75;;;14.20;78.20;;;;;;5046593;28;20029;-71
2021/06/13 05:03:59;;;;;;;18.67;14.30;;;14.20;78.20;;;;;;5041217;28;20472;-71
2021/06/13 05:06:25;;;;;;;15.52;13.35;;;14.40;78.60;;;;;;5043290;28;20044;-71
2021/06/13 05:08:51;;;;;;;15.88;12.27;;;14.90;77.80;;;;;;5055745;28;20049;-71
2021/06/13 05:11:17;;;;;;;15.05;11.85;;;16.00;74.70;;;;;;5046765;28;20477;-71
2021/06/13 05:13:43;;;;;;;14.93;11.07;;;17.50;69.80;;;;;;5039206;28;20037;-71
2021/06/13 05:16:09;;;;;;;15.02;11.52;;;18.50;65.80;;;;;;5039695;28;20481;-71
2021/06/13 05:18:35;;;;;;;15.23;11.55;;;19.10;62.20;;;;;;5058810;28;20078;-72
2021/06/13 05:21:01;;;;;;;12.73;9.70;;;19.60;60.30;;;;;;5041760;28;20133;-73
2021/06/13 05:23:27;;;;;;;14.30;9.00;;;20.60;57.40;;;;;;5044125;28;20099;-71
2021/06/13 05:25:55;;;;;;;13.93;10.95;;;21.60;55.40;;;;;;5043520;28;20534;-71
2021/06/13 05:28:22;;;;;;;15.43;11.48;;;21.80;53.60;;;;;;5047152;28;25380;-71
2021/06/13 05:30:48;;;;;;;12.80;9.32;;;22.10;52.70;;;;;;5044716;28;20037;-71
2021/06/13 05:33:15;;;;;;;13.65;10.52;;;22.90;51.10;;;;;;5046416;28;20041;-71
2021/06/13 05:35:41;;;;;;;14.50;10.07;;;23.40;49.90;;;;;;5043507;28;20323;-72
2021/06/13 05:38:08;;;;;;;14.23;10.60;;;23.50;49.50;;;;;;5043378;28;20033;-72
2021/06/13 05:40:34;;;;;;;13.27;10.35;;;24.10;47.70;;;;;;5045056;28;20044;-72
2021/06/13 05:43:00;;;;;;;12.65;8.45;;;23.80;48.60;;;;;;5043616;28;20045;-71
2021/06/13 05:45:28;;;;;;;14.27;9.32;;;24.00;47.60;;;;;;5045673;28;20472;-71
2021/06/13 05:47:54;;;;;;;13.57;10.13;;;24.20;47.20;;;;;;5047187;28;20384;-74
2021/06/13 05:50:21;;;;;;;12.90;9.23;;;24.10;45.60;;;;;;5040014;28;20123;-72
2021/06/13 05:52:47;;;;;;;15.50;10.68;;;23.70;47.00;;;;;;5046372;28;20075;-72
2021/06/13 05:55:14;;;;;;;11.73;9.52;;;23.10;48.50;;;;;;5044506;28;20033;-72
2021/06/13 05:57:40;;;;;;;15.07;11.07;;;22.30;50.80;;;;;;5042355;28;20436;-72
2021/06/13 06:00:20;;;;;;;15.20;10.82;;;21.40;54.00;;;;;;5042959;28;20037;-72
2021/06/13 06:02:46;;;;;;;14.25;9.38;;;20.50;56.60;;;;;;5041713;28;20044;-72
2021/06/13 06:05:13;;;;;;;14.68;11.45;;;19.80;56.30;;;;;;5039714;28;20039;-71
2021/06/13 06:07:39;;;;;;;15.90;11.23;;;19.40;60.20;;;;;;5043968;28;20060;-73
2021/06/13 06:10:06;;;;;;;14.93;11.30;;;19.10;61.30;;;;;;5061121;28;20489;-73
2021/06/13 06:12:32;;;;;;;15.35;9.82;;;18.90;61.90;;;;;;5038734;28;20120;-73
2021/06/13 06:14:58;;;;;;;15.02;9.77;;;18.90;60.60;;;;;;5043465;28;20160;-72
2021/06/13 06:17:24;;;;;;;12.48;7.53;;;18.70;60.30;;;;;;5040268;28;20099;-72
2021/06/13 06:19:50;;;;;;;11.30;7.57;;;18.80;58.40;;;;;;5042610;28;20079;-73
2021/06/13 06:22:16;;;;;;;12.80;7.78;;;18.90;57.10;;;;;;5044803;28;20037;-72
2021/06/13 06:24:42;;;;;;;11.65;7.85;;;19.00;58.70;;;;;;5041788;28;20033;-74
2021/06/13 06:27:07;;;;;;;13.48;8.30;;;19.10;57.00;;;;;;5043258;28;20029;-73
2021/06/13 06:29:33;;;;;;;11.90;8.00;;;19.10;57.60;;;;;;5046063;28;20121;-72
2021/06/13 06:31:59;;;;;;;12.70;8.18;;;19.10;56.90;;;;;;5042698;28;20117;-72
2021/06/13 06:34:25;;;;;;;13.90;7.85;;;19.20;55.50;;;;;;5047164;28;20130;-72
2021/06/13 06:36:51;;;;;;;13.43;7.15;;;19.20;55.50;;;;;;5042431;28;20036;-72
2021/06/13 06:39:17;;;;;;;12.80;7.47;;;19.30;54.80;;;;;;5046373;28;20033;-72
2021/06/13 06:41:43;;;;;;;14.18;7.82;;;19.50;54.90;;;;;;5046839;28;20033;-72
2021/06/13 06:44:10;;;;;;;12.48;7.13;;;19.50;54.50;;;;;;5044507;28;20040;-73
2021/06/13 06:46:37;;;;;;;12.48;7.13;;;19.50;54.10;;;;;;5045746;28;20029;-72
2021/06/13 06:49:04;;;;;;;13.40;6.22;;;19.60;53.40;;;;;;5039686;28;20039;-71
2021/06/13 06:51:30;;;;;;;9.23;4.10;;;19.60;52.10;;;;;;5042077;28;20087;-69
2021/06/13 06:53:57;;;;;;;7.25;3.53;;;19.90;49.80;;;;;;5038403;28;20029;-69
2021/06/13 06:56:27;;;;;;;11.55;5.70;;;20.10;48.20;;;;;;5037274;28;20037;-68
2021/06/13 06:58:54;;;;;;;11.50;5.07;;;20.20;48.60;;;;;;5040692;28;20030;-69
2021/06/13 07:01:21;;;;;;;12.50;6.05;;;20.40;48.60;;;;;;5040262;28;20037;-68
2021/06/13 07:03:47;;;;;;;13.43;5.57;;;20.50;49.10;;;;;;5046200;28;20504;-68
2021/06/13 07:06:12;;;;;;;10.40;5.72;;;20.50;47.90;;;;;;5047893;28;20037;-68
2021/06/13 07:08:38;;;;;;;11.48;5.30;;;20.60;50.00;;;;;;5046897;28;20045;-69
2021/06/13 07:11:04;;;;;;;9.40;5.20;;;20.70;48.30;;;;;;5042698;28;20680;-69
2021/06/13 07:13:29;;;;;;;9.50;5.35;;;20.80;48.30;;;;;;5036851;28;20492;-71
2021/06/13 07:15:55;;;;;;;9.95;6.00;;;21.00;47.10;;;;;;5038333;28;20036;-71
2021/06/13 07:18:21;;;;;;;10.98;5.32;;;21.00;47.00;;;;;;5042473;28;20041;-70
2021/06/13 07:20:46;;;;;;;11.18;5.78;;;21.00;47.50;;;;;;5043380;28;20040;-68
2021/06/13 07:23:12;;;;;;;10.07;6.28;;;21.20;47.40;;;;;;5034144;28;20519;-69
2021/06/13 07:25:38;;;;;;;11.13;7.10;;;21.40;47.10;;;;;;5045444;28;20087;-71
2021/06/13 07:28:05;;;;;;;12.23;5.85;;;21.40;47.30;;;;;;5040584;28;20481;-68
2021/06/13 07:30:32;;;;;;;9.70;4.43;;;21.20;47.00;;;;;;5037243;28;20536;-68
2021/06/13 07:32:57;;;;;;;13.02;6.35;;;21.50;45.70;;;;;;5043513;28;20112;-69
2021/06/13 07:35:24;;;;;;;10.50;5.90;;;21.50;46.20;;;;;;5039132;28;20488;-69
2021/06/13 07:37:50;;;;;;;9.05;5.68;;;21.50;46.80;;;;;;5038863;28;20168;-68
2021/06/13 07:40:16;;;;;;;13.75;5.97;;;21.60;47.70;;;;;;5035436;28;20037;-69
2021/06/13 07:42:42;;;;;;;12.00;6.20;;;21.60;47.10;;;;;;5036171;28;20041;-69
2021/06/13 07:45:11;;;;;;;11.55;5.68;;;21.70;46.90;;;;;;5032118;28;20041;-68
2021/06/13 07:47:37;;;;;;;9.55;5.88;;;21.80;46.90;;;;;;5035899;28;20026;-69
2021/06/13 07:50:06;;;;;;;13.50;5.88;;;21.70;48.20;;;;;;5033257;28;20485;-71
2021/06/13 07:52:32;;;;;;;10.07;4.80;;;21.90;47.10;;;;;;5034772;28;20476;-68
2021/06/13 07:54:58;;;;;;;11.13;5.10;;;22.00;45.90;;;;;;5033690;28;20492;-69
2021/06/13 07:57:24;;;;;;;10.93;5.72;;;21.90;46.10;;;;;;5033877;28;20033;-71
2021/06/13 07:59:49;;;;;;;10.30;5.38;;;22.00;45.10;;;;;;5033958;28;20048;-69
2021/06/13 08:02:15;;;;;;;12.52;6.30;;;22.00;46.00;;;;;;5034021;28;20048;-69
2021/06/13 08:04:49;;;;;;;9.50;5.90;;;22.10;45.30;;;;;;5037262;28;20029;-69
2021/06/13 08:07:14;;;;;;;11.07;6.40;;;22.20;46.50;;;;;;5038937;28;20033;-69
2021/06/13 08:09:40;;;;;;;11.45;6.68;;;22.20;45.80;;;;;;5037739;28;20056;-69
2021/06/13 08:12:06;;;;;;;13.57;7.03;;;22.60;45.60;;;;;;5044395;28;21365;-68
2021/06/13 08:14:32;;;;;;;12.48;6.25;;;22.60;45.10;;;;;;5039072;28;20044;-69
2021/06/13 08:16:58;;;;;;;13.75;6.15;;;22.40;46.00;;;;;;5041081;28;20040;-68
2021/06/13 08:19:24;;;;;;;17.42;8.30;;;22.60;45.00;;;;;;5036297;28;20033;-72
2021/06/13 08:21:50;;;;;;;15.68;9.25;;;22.70;44.10;;;;;;5038380;28;20469;-68
2021/06/13 08:24:16;;;;;;;15.32;8.73;;;22.40;43.40;;;;;;5036393;28;20029;-69
2021/06/13 08:26:42;;;;;;;17.52;10.32;;;22.20;45.00;;;;;;5035423;28;20461;-70
2021/06/13 08:29:07;;;;;;;18.42;11.57;;;22.40;44.10;;;;;;5051590;28;20405;-69
2021/06/13 08:31:33;;;;;;;16.35;10.40;;;22.10;44.60;;;;;;5037648;28;20484;-68
2021/06/13 08:33:59;;;;;;;20.67;11.77;;;21.60;45.60;;;;;;5038392;28;20535;-70
2021/06/13 08:36:25;;;;;;;17.70;11.15;;;21.80;45.10;;;;;;5035685;28;20056;-70
2021/06/13 08:38:52;;;;;;;20.15;10.98;;;22.30;45.40;;;;;;5037197;28;20049;-69
2021/06/13 08:41:19;;;;;;;18.02;11.38;;;22.70;45.40;;;;;;5037130;28;20068;-69
2021/06/13 08:43:49;;;;;;;17.90;11.73;;;22.90;43.90;;;;;;5037542;28;20049;-69
2021/06/13 08:46:16;;;;;;;17.35;11.32;;;22.90;43.80;;;;;;5034516;28;20064;-69
2021/06/13 08:48:46;;;;;;;18.27;11.40;;;22.60;45.50;;;;;;5036193;28;20142;-69
2021/06/13 08:51:12;;;;;;;18.23;11.25;;;22.80;44.80;;;;;;5034813;28;20037;-71
2021/06/13 08:53:43;;;;;;;15.13;8.52;;;22.80;45.20;;;;;;5037852;28;20508;-69
2021/06/13 08:56:10;;;;;;;14.63;9.10;;;22.70;45.50;;;;;;5037178;28;20037;-68
2021/06/13 08:58:36;;;;;;;14.00;8.93;;;23.10;44.10;;;;;;5034465;28;20132;-69
2021/06/13 09:01:02;;;;;;;13.25;7.72;;;23.40;43.80;;;;;;5035300;28;20443;-69
2021/06/13 09:03:27;;;;;;;18.80;8.50;;;23.60;43.70;;;;;;5037544;28;20223;-72
2021/06/13 09:05:53;;;;;;;12.52;7.97;;;23.80;43.30;;;;;;5036784;28;20457;-69
2021/06/13 09:08:19;;;;;;;15.13;7.70;;;24.20;42.20;;;;;;5032261;28;20064;-69
2021/06/13 09:10:46;;;;;;;16.88;7.65;;;24.20;42.00;;;;;;5033536;28;20121;-69
2021/06/13 09:13:22;;;;;;;13.63;7.50;;;23.90;43.30;;;;;;5033145;28;20045;-69
2021/06/13 09:15:54;;;;;;;13.40;8.05;;;23.20;45.10;;;;;;5034255;28;20037;-69
2021/06/13 09:18:42;;;;;;;13.75;8.73;;;23.50;43.40;;;;;;5040031;28;20025;-68
2021/06/13 09:21:28;;;;;;;13.80;8.23;;;23.50;43.30;;;;;;5038003;28;20037;-71
2021/06/13 09:23:54;;;;;;;14.07;8.07;;;23.20;44.50;;;;;;5040621;28;20059;-69
2021/06/13 09:26:25;;;;;;;12.95;7.85;;;23.70;43.70;;;;;;5039201;28;20037;-68
2021/06/13 09:28:52;;;;;;;14.63;7.53;;;23.90;42.80;;;;;;5042063;28;20457;-68
2021/06/13 09:31:24;;;;;;;14.48;8.10;;;24.10;42.70;;;;;;5040327;28;20463;-70
2021/06/13 09:33:52;;;;;;;15.13;7.82;;;24.50;42.50;;;;;;5040146;28;20040;-71
2021/06/13 09:36:23;;;;;;;12.63;6.80;;;24.60;42.40;;;;;;5040430;28;20396;-69
2021/06/13 09:38:53;;;;;;;15.13;8.07;;;24.50;42.20;;;;;;5043391;28;20122;-69
2021/06/13 09:41:22;;;;;;;11.23;6.25;;;24.40;42.60;;;;;;5049712;28;20044;-69
2021/06/13 09:43:53;;;;;;;10.27;5.97;;;24.10;42.60;;;;;;5039673;28;20041;-72
2021/06/13 09:46:22;;;;;;;13.07;6.97;;;24.00;43.00;;;;;;5042541;28;20063;-69
2021/06/13 09:48:56;;;;;;;14.27;7.60;;;24.50;43.40;;;;;;5039395;28;20026;-69
2021/06/13 09:51:33;;;;;;;11.90;7.70;;;24.50;42.90;;;;;;5037936;28;20076;-69
2021/06/13 09:53:59;;;;;;;14.23;8.48;;;24.40;42.20;;;;;;5041662;28;20091;-69
2021/06/13 09:56:29;;;;;;;14.02;7.93;;;24.40;42.60;;;;;;5038811;28;20033;-68
2021/06/13 09:59:11;;;;;;;14.98;8.52;;;24.60;41.80;;;;;;5041581;28;20029;-69
2021/06/13 10:01:38;;;;;;;11.93;6.97;;;25.00;42.60;;;;;;5038180;28;20091;-69
2021/06/13 10:04:07;;;;;;;11.13;6.00;;;25.20;41.90;;;;;;5023876;28;20904;-69
2021/06/13 10:06:35;;;;;;;11.48;6.57;;;25.30;41.40;;;;;;5035923;28;20260;-71
2021/06/13 10:09:04;;;;;;;12.35;6.43;;;25.60;39.90;;;;;;5035412;28;20418;-70
2021/06/13 10:11:30;;;;;;;14.30;7.55;;;25.70;39.60;;;;;;5030901;28;20422;-68
2021/06/13 10:14:00;;;;;;;14.35;7.47;;;25.60;39.50;;;;;;5039369;28;20045;-72
2021/06/13 10:16:32;;;;;;;14.20;7.95;;;25.10;41.00;;;;;;5036162;28;20029;-70
2021/06/13 10:19:02;;;;;;;13.43;6.90;;;25.00;40.60;;;;;;5038425;28;20093;-69
2021/06/13 10:21:35;;;;;;;12.65;6.57;;;24.70;42.00;;;;;;5037892;28;20341;-69
2021/06/13 10:24:06;;;;;;;11.93;6.47;;;25.10;41.60;;;;;;5037859;28;20037;-70
2021/06/13 10:26:34;;;;;;;13.98;6.35;;;25.20;41.00;;;;;;5032543;28;20025;-70
2021/06/13 10:29:01;;;;;;;11.68;6.60;;;25.10;43.00;;;;;;5033035;28;20156;-68
2021/06/13 10:31:27;;;;;;;12.35;6.88;;;25.20;40.80;;;;;;5034971;28;20037;-70
2021/06/13 10:33:54;;;;;;;12.30;6.97;;;25.30;40.50;;;;;;5037430;28;20036;-68
2021/06/13 10:36:20;;;;;;;11.18;7.03;;;24.70;41.00;;;;;;5047393;28;20041;-70
2021/06/13 10:38:46;;;;;;;12.00;6.90;;;24.30;42.80;;;;;;5037784;28;20056;-69
2021/06/13 10:41:12;;;;;;;15.00;6.70;;;24.10;44.10;;;;;;5040926;28;20037;-68
2021/06/13 10:43:39;;;;;;;15.07;6.85;;;24.20;42.90;;;;;;5036048;28;20526;-69
2021/06/13 10:46:08;;;;;;;11.38;6.75;;;24.70;43.60;;;;;;5041055;28;20048;-70
2021/06/13 10:48:43;;;;;;;12.13;6.50;;;25.40;41.80;;;;;;5022281;28;20037;-69
2021/06/13 10:51:28;;;;;;;13.07;8.23;;;25.80;40.80;;;;;;5043247;28;20137;-69
2021/06/13 10:54:14;;;;;;;11.57;6.65;;;25.80;41.10;;;;;;5047839;28;20070;-69
2021/06/13 10:56:40;;;;;;;15.25;7.18;;;25.50;40.70;;;;;;5038101;28;20033;-69
2021/06/13 10:59:13;;;;;;;11.23;6.18;;;25.10;42.00;;;;;;5061517;28;20083;-68
2021/06/13 11:01:56;;;;;;;11.18;6.13;;;25.50;40.90;;;;;;5044990;28;20032;-70
2021/06/13 11:04:41;;;;;;;11.45;5.85;;;25.70;40.20;;;;;;5040389;28;20058;-71
2021/06/13 11:07:07;;;;;;;12.75;5.63;;;26.10;39.20;;;;;;5045968;28;20096;-69
2021/06/13 11:09:32;;;;;;;10.57;5.80;;;26.20;39.10;;;;;;5039954;28;20427;-68
2021/06/13 11:11:58;;;;;;;12.63;6.40;;;26.50;38.70;;;;;;5037940;28;20037;-67
2021/06/13 11:14:29;;;;;;;10.75;5.63;;;26.30;39.50;;;;;;5036591;28;20037;-71
2021/06/13 11:16:58;;;;;;;12.90;5.68;;;26.10;40.40;;;;;;5036978;28;20420;-69
2021/06/13 11:19:43;;;;;;;9.82;5.90;;;26.30;39.80;;;;;;5036598;28;20346;-68
2021/06/13 11:22:33;;;;;;;12.77;7.10;;;26.20;39.80;;;;;;5035523;28;20033;-67
2021/06/13 11:25:00;;;;;;;12.32;6.65;;;26.20;40.10;;;;;;5041301;28;20041;-68
2021/06/13 11:27:26;;;;;;;12.23;6.88;;;25.80;41.20;;;;;;5045767;28;20657;-68
2021/06/13 11:29:54;;;;;;;11.98;7.38;;;26.40;40.90;;;;;;5045543;28;20493;-68
2021/06/13 11:32:49;;;;;;;10.38;5.75;;;26.50;39.50;;;;;;5045313;28;20704;-68
2021/06/13 11:35:27;;;;;;;11.02;6.53;;;26.60;38.70;;;;;;5043947;28;20508;-69
2021/06/13 11:38:16;;;;;;;11.52;7.15;;;26.50;40.00;;;;;;5041358;28;20072;-71
2021/06/13 11:40:52;;;;;;;14.23;6.90;;;26.30;39.00;;;;;;5051982;28;20071;-67
2021/06/13 11:43:20;;;;;;;12.80;7.45;;;25.60;40.50;;;;;;5048509;28;20041;-68
2021/06/13 11:45:51;;;;;;;10.52;6.63;;;25.60;41.50;;;;;;5050979;28;20436;-67
2021/06/13 11:48:19;;;;;;;13.25;7.13;;;25.50;41.60;;;;;;5046762;28;20115;-67
2021/06/13 11:50:58;;;;;;;10.07;5.85;;;25.30;41.60;;;;;;5048112;28;20040;-68
2021/06/13 11:53:59;;;;;;;15.43;6.85;;;25.50;41.10;;;;;;5045845;28;20037;-67
2021/06/13 11:56:34;;;;;;;12.63;6.05;;;25.80;40.30;;;;;;5043068;28;20078;-68
2021/06/13 11:59:14;;;;;;;9.57;5.30;;;25.80;40.30;;;;;;5048051;28;20037;-68
2021/06/13 12:01:42;;;;;;;10.85;6.05;;;26.00;40.90;;;;;;5043209;28;20090;-68
2021/06/13 12:04:13;;;;;;;11.65;5.70;;;26.30;40.20;;;;;;5045612;28;20120;-67
2021/06/13 12:06:39;;;;;;;12.95;5.88;;;26.50;40.70;;;;;;5060169;28;20061;-68
2021/06/13 12:09:15;;;;;;;12.50;5.70;;;26.90;39.20;;;;;;5045948;28;20111;-68
2021/06/13 12:11:49;;;;;;;11.73;5.32;;;26.90;40.10;;;;;;5045431;28;20087;-68
2021/06/13 12:14:41;;;;;;;11.02;5.45;;;27.10;38.90;;;;;;5041539;28;20030;-68
2021/06/13 12:17:13;;;;;;;14.07;5.75;;;27.10;38.40;;;;;;5045057;28;20037;-67
2021/06/13 12:19:51;;;;;;;11.75;5.43;;;26.80;39.20;;;;;;5044291;28;20038;-69
2021/06/13 12:22:19;;;;;;;12.75;5.63;;;26.90;38.60;;;;;;5046861;28;20037;-69
2021/06/13 12:27:22;;;;;;;11.45;5.00;;;27.10;38.70;;;;;;5044082;28;20033;-68
2021/06/13 12:29:52;;;;;;;10.82;5.70;;;27.30;37.30;;;;;;5042377;28;20112;-68
2021/06/13 12:32:18;;;;;;;12.70;5.13;;;27.00;37.80;;;;;;5045886;28;20029;-68
2021/06/13 12:34:46;;;;;;;10.15;5.20;;;26.70;39.00;;;;;;5041923;28;20052;-69
2021/06/13 12:37:20;;;;;;;8.85;4.78;;;26.40;39.50;;;;;;5039231;28;20160;-69
2021/06/13 12:39:58;;;;;;;11.50;5.22;;;26.40;40.40;;;;;;5037315;28;20064;-70
2021/06/13 12:42:24;;;;;;;10.07;5.53;;;26.50;38.60;;;;;;5038733;28;20567;-69
2021/06/13 12:45:11;;;;;;;9.77;5.15;;;26.10;38.90;;;;;;5041349;28;20041;-69